KFHR

Friday Harbor Airport

Friday Harbor, Washington, USA
METAR KFHR 231353Z AUTO 00000KT 10SM CLR 12/11 A2983 RMK AO2 SLP100 T01220106 TSNO
Observed Flight Rules
May-23 @ 13:53 UTC (an hour ago) Visual Flight Rules
Visibility Clouds
10 miles
  • Clear skies
Temperatures Readings
Current 12°C / 54°F
Dewpoint 11°C / 52°F
Humidity 94%
Altimeter 29.83" Hg
Pressure 1010 hPa
Elevation 32
METAR KFHR 231353Z AUTO 00000KT 10SM CLR 12/11 A2983 RMK AO2 SLP100 T01220106 TSNO
Observed Flight Rules
May-23 @ 13:53 UTC
(an hour ago)
VFR
Clouds
  • Clear skies
Temperature Dewpoint
12°C / 54°F 11°C / 52°F
Humidity Altimeter Pressure
94% 29.83" Hg 1010 hPa